Time;durP1;ratioP1;P1;durP2;ratioP2;P2;SDS_P1;SDS_P2;PMS_P1;PMS_P2;Temp;Humidity;BMP_temperature;BMP_pressure;BME280_temperature;BME280_humidity;BME280_pressure;Samples;Min_cycle;Max_cycle;Signal;HPM_P1;HPM_P2
2024/03/09 00:00:21;;;;;;;13.98;6.25;;;;;;;;;;7408458;19;19930;-85
2024/03/09 00:03:10;;;;;;;10.95;5.45;;;;;;;;;;7407614;19;19910;-85
2024/03/09 00:05:54;;;;;;;10.43;4.75;;;;;;;;;;7410215;19;19915;-84
2024/03/09 00:08:46;;;;;;;9.73;4.32;;;;;;;;;;7411888;19;19911;-84
2024/03/09 00:11:35;;;;;;;13.68;5.88;;;;;;;;;;7406902;19;19973;-84
2024/03/09 00:14:19;;;;;;;13.40;6.18;;;;;;;;;;7414074;19;19927;-84
2024/03/09 00:17:03;;;;;;;11.25;5.93;;;;;;;;;;7417171;19;20261;-84
2024/03/09 00:19:50;;;;;;;10.90;5.97;;;;;;;;;;7418618;19;19923;-84
2024/03/09 00:22:34;;;;;;;13.18;5.68;;;;;;;;;;7415917;19;20419;-84
2024/03/09 00:25:24;;;;;;;13.82;6.28;;;;;;;;;;7414635;19;20261;-84
2024/03/09 00:28:14;;;;;;;12.55;6.30;;;;;;;;;;7419394;19;19923;-84
2024/03/09 00:31:02;;;;;;;12.48;6.00;;;;;;;;;;7417117;19;19911;-84
2024/03/09 00:33:49;;;;;;;10.05;5.25;;;;;;;;;;7416743;19;19935;-84
2024/03/09 00:36:35;;;;;;;10.32;5.35;;;;;;;;;;7415515;19;19918;-84
2024/03/09 00:39:19;;;;;;;12.30;6.03;;;;;;;;;;7415928;19;19913;-84
2024/03/09 00:42:09;;;;;;;7.45;2.90;;;;;;;;;;7417307;19;19918;-84
2024/03/09 00:47:55;;;;;;;11.35;5.60;;;;;;;;;;7419055;19;20313;-81
2024/03/09 00:50:42;;;;;;;13.50;6.60;;;;;;;;;;7416332;19;19921;-81
2024/03/09 00:53:31;;;;;;;14.85;6.22;;;;;;;;;;7415658;19;19923;-82
2024/03/09 00:56:17;;;;;;;13.20;5.80;;;;;;;;;;7415583;19;19999;-82
2024/03/09 00:59:06;;;;;;;16.48;6.68;;;;;;;;;;7417290;19;19922;-82
2024/03/09 01:01:55;;;;;;;11.95;5.47;;;;;;;;;;7415048;19;20330;-82
2024/03/09 01:04:41;;;;;;;12.75;6.10;;;;;;;;;;7414823;19;20341;-82
2024/03/09 01:07:29;;;;;;;13.98;6.22;;;;;;;;;;7413271;19;19958;-82
2024/03/09 01:10:16;;;;;;;16.38;7.22;;;;;;;;;;7417987;19;19914;-82
2024/03/09 01:13:04;;;;;;;14.23;5.72;;;;;;;;;;7416874;19;19942;-82
2024/03/09 01:15:52;;;;;;;15.00;6.30;;;;;;;;;;7416688;19;20000;-82
2024/03/09 01:18:39;;;;;;;11.55;6.03;;;;;;;;;;7415395;19;20393;-82
2024/03/09 01:21:28;;;;;;;12.60;6.60;;;;;;;;;;7416221;19;19942;-82
2024/03/09 01:24:15;;;;;;;14.88;6.18;;;;;;;;;;7414479;19;19925;-82
2024/03/09 01:26:59;;;;;;;16.10;6.07;;;;;;;;;;7414097;19;19926;-82
2024/03/09 01:29:47;;;;;;;11.68;6.65;;;;;;;;;;7416938;19;19946;-82
2024/03/09 01:32:33;;;;;;;14.25;6.32;;;;;;;;;;7416176;19;19918;-82
2024/03/09 01:35:23;;;;;;;14.48;6.47;;;;;;;;;;7415425;19;19943;-83
2024/03/09 01:38:17;;;;;;;19.67;6.93;;;;;;;;;;7414541;19;19930;-82
2024/03/09 01:41:04;;;;;;;17.70;6.53;;;;;;;;;;7414023;19;19942;-82
2024/03/09 01:43:50;;;;;;;14.52;6.80;;;;;;;;;;7415169;19;20312;-82
2024/03/09 01:46:37;;;;;;;14.07;6.57;;;;;;;;;;7414629;19;19929;-82
2024/03/09 01:49:28;;;;;;;14.77;5.90;;;;;;;;;;7414486;19;20261;-82
2024/03/09 01:52:13;;;;;;;20.38;6.15;;;;;;;;;;7414551;19;19915;-82
2024/03/09 01:54:57;;;;;;;14.88;6.30;;;;;;;;;;7442791;19;19947;-82
2024/03/09 01:57:52;;;;;;;15.18;7.13;;;;;;;;;;7437833;19;19918;-82
2024/03/09 02:00:37;;;;;;;14.68;5.95;;;;;;;;;;7413535;19;19946;-82
2024/03/09 02:03:22;;;;;;;12.52;5.88;;;;;;;;;;7411583;19;20595;-83
2024/03/09 02:06:12;;;;;;;13.02;6.13;;;;;;;;;;7410472;19;19914;-82
2024/03/09 02:08:59;;;;;;;16.08;6.68;;;;;;;;;;7411343;19;20388;-82
2024/03/09 02:11:43;;;;;;;15.75;6.00;;;;;;;;;;7412473;19;19922;-81
2024/03/09 02:14:33;;;;;;;14.02;6.32;;;;;;;;;;7413753;19;19922;-81
2024/03/09 02:17:22;;;;;;;14.38;5.80;;;;;;;;;;7420852;19;19934;-81
2024/03/09 02:20:11;;;;;;;13.90;6.03;;;;;;;;;;7441177;19;19914;-81
2024/03/09 02:23:02;;;;;;;11.30;5.40;;;;;;;;;;7443286;19;19915;-81
2024/03/09 02:25:50;;;;;;;12.23;5.30;;;;;;;;;;7435615;19;19952;-81
2024/03/09 02:28:37;;;;;;;16.23;6.63;;;;;;;;;;7408319;19;19915;-81
2024/03/09 02:31:21;;;;;;;14.40;6.18;;;;;;;;;;7411067;19;19915;-80
2024/03/09 02:34:07;;;;;;;15.18;7.25;;;;;;;;;;7411981;19;19938;-81
2024/03/09 02:36:52;;;;;;;15.10;6.90;;;;;;;;;;7409454;19;20010;-81
2024/03/09 02:39:38;;;;;;;17.48;6.38;;;;;;;;;;7413577;19;19926;-80
2024/03/09 02:42:26;;;;;;;16.00;6.63;;;;;;;;;;7412444;19;19931;-80
2024/03/09 02:45:11;;;;;;;16.27;6.90;;;;;;;;;;7411212;19;19911;-80
2024/03/09 02:47:58;;;;;;;14.15;6.15;;;;;;;;;;7412314;19;19907;-81
2024/03/09 02:50:42;;;;;;;15.07;6.53;;;;;;;;;;7412940;19;19942;-81
2024/03/09 02:53:26;;;;;;;21.35;7.00;;;;;;;;;;7413280;19;19910;-81
2024/03/09 02:56:12;;;;;;;16.20;6.47;;;;;;;;;;7413352;19;19914;-81
2024/03/09 02:59:01;;;;;;;16.02;7.28;;;;;;;;;;7414739;19;19918;-80
2024/03/09 03:01:46;;;;;;;14.70;6.78;;;;;;;;;;7413187;19;19921;-80
2024/03/09 03:04:30;;;;;;;13.73;5.85;;;;;;;;;;7413696;19;19921;-81
2024/03/09 03:07:14;;;;;;;14.73;5.95;;;;;;;;;;7412253;19;19907;-81
2024/03/09 03:10:01;;;;;;;12.75;6.55;;;;;;;;;;7414899;19;19919;-81
2024/03/09 03:12:47;;;;;;;17.10;6.55;;;;;;;;;;7414738;19;19917;-81
2024/03/09 03:15:37;;;;;;;12.98;6.15;;;;;;;;;;7414449;19;19910;-81
2024/03/09 03:18:23;;;;;;;11.93;5.93;;;;;;;;;;7415231;19;19919;-81
2024/03/09 03:21:08;;;;;;;19.92;6.30;;;;;;;;;;7412978;19;19925;-81
2024/03/09 03:23:56;;;;;;;16.38;5.65;;;;;;;;;;7413269;19;19918;-81
2024/03/09 03:26:46;;;;;;;16.73;6.47;;;;;;;;;;7415807;19;19910;-81
2024/03/09 03:29:30;;;;;;;15.43;6.63;;;;;;;;;;7416684;19;20356;-81
2024/03/09 03:32:23;;;;;;;16.05;6.07;;;;;;;;;;7417086;19;19919;-80
2024/03/09 03:35:10;;;;;;;15.98;6.60;;;;;;;;;;7418385;19;20353;-80
2024/03/09 03:37:59;;;;;;;14.85;5.75;;;;;;;;;;7414816;19;19918;-80
2024/03/09 03:40:43;;;;;;;13.75;6.63;;;;;;;;;;7417558;19;19919;-80
2024/03/09 03:43:28;;;;;;;13.52;5.95;;;;;;;;;;7418327;19;19914;-80
2024/03/09 03:46:17;;;;;;;14.52;6.30;;;;;;;;;;7417153;19;20692;-80
2024/03/09 03:49:07;;;;;;;16.90;6.40;;;;;;;;;;7420467;19;19939;-80
2024/03/09 03:51:52;;;;;;;17.05;7.25;;;;;;;;;;7424403;19;19914;-80
2024/03/09 03:54:36;;;;;;;15.20;6.75;;;;;;;;;;7424584;19;19917;-81
2024/03/09 03:57:21;;;;;;;16.55;6.85;;;;;;;;;;7423234;19;19922;-81
2024/03/09 04:00:12;;;;;;;19.48;7.45;;;;;;;;;;7426025;19;19918;-81
2024/03/09 04:02:59;;;;;;;11.63;6.13;;;;;;;;;;7424593;19;19926;-81
2024/03/09 04:05:48;;;;;;;19.35;6.88;;;;;;;;;;7422751;19;19935;-81
2024/03/09 04:08:33;;;;;;;15.00;6.55;;;;;;;;;;7420646;19;19918;-80
2024/03/09 04:11:26;;;;;;;19.02;6.10;;;;;;;;;;7441128;19;19921;-80
2024/03/09 04:14:10;;;;;;;15.75;6.20;;;;;;;;;;7444431;19;19919;-80
2024/03/09 04:16:57;;;;;;;19.90;8.00;;;;;;;;;;7418063;19;19917;-80
2024/03/09 04:19:47;;;;;;;12.30;5.50;;;;;;;;;;7421345;19;19921;-80
2024/03/09 04:22:34;;;;;;;19.13;6.15;;;;;;;;;;7420296;19;19915;-80
2024/03/09 04:25:22;;;;;;;17.08;7.10;;;;;;;;;;7418305;19;19946;-80
2024/03/09 04:28:10;;;;;;;17.00;7.32;;;;;;;;;;7418274;19;19934;-80
2024/03/09 04:30:56;;;;;;;14.55;5.28;;;;;;;;;;7422108;19;19922;-80
2024/03/09 04:33:40;;;;;;;17.35;6.47;;;;;;;;;;7421960;19;20253;-80
2024/03/09 04:36:30;;;;;;;11.13;5.80;;;;;;;;;;7419286;19;19918;-81
2024/03/09 04:39:24;;;;;;;7.00;4.05;;;;;;;;;;7421084;19;19923;-80
2024/03/09 04:42:13;;;;;;;18.20;6.45;;;;;;;;;;7420673;19;19952;-80
2024/03/09 04:45:05;;;;;;;14.73;6.35;;;;;;;;;;7419134;19;19906;-80
2024/03/09 04:47:50;;;;;;;14.80;6.88;;;;;;;;;;7422400;19;19915;-81
2024/03/09 04:50:38;;;;;;;17.40;6.95;;;;;;;;;;7424395;19;19911;-81
2024/03/09 04:53:27;;;;;;;15.02;6.53;;;;;;;;;;7423275;19;19924;-81
2024/03/09 04:56:17;;;;;;;16.70;6.28;;;;;;;;;;7422846;19;19958;-81
2024/03/09 04:59:03;;;;;;;15.35;7.22;;;;;;;;;;7428255;19;20321;-80
2024/03/09 05:01:52;;;;;;;11.90;5.20;;;;;;;;;;7428904;19;19918;-81
2024/03/09 05:04:36;;;;;;;13.77;6.38;;;;;;;;;;7427592;19;19994;-81
2024/03/09 05:07:24;;;;;;;18.83;6.78;;;;;;;;;;7427545;19;19923;-80
2024/03/09 05:10:10;;;;;;;18.73;7.10;;;;;;;;;;7426826;19;19906;-80
2024/03/09 05:13:00;;;;;;;16.95;6.18;;;;;;;;;;7428515;19;19911;-80
2024/03/09 05:15:44;;;;;;;14.25;5.68;;;;;;;;;;7427655;19;19917;-80
2024/03/09 05:18:30;;;;;;;14.23;6.45;;;;;;;;;;7425190;19;19981;-81
2024/03/09 05:21:17;;;;;;;16.83;6.00;;;;;;;;;;7427936;19;19947;-81
2024/03/09 05:24:05;;;;;;;14.68;6.43;;;;;;;;;;7428265;19;20003;-81
2024/03/09 05:26:50;;;;;;;14.27;5.95;;;;;;;;;;7428247;19;19924;-81
2024/03/09 05:29:39;;;;;;;16.55;6.80;;;;;;;;;;7428481;19;19910;-81
2024/03/09 05:32:23;;;;;;;15.05;5.70;;;;;;;;;;7427007;19;19911;-81
2024/03/09 05:35:14;;;;;;;17.75;6.30;;;;;;;;;;7426845;19;19911;-81
2024/03/09 05:38:04;;;;;;;15.60;6.45;;;;;;;;;;7424929;19;19921;-81
2024/03/09 05:40:50;;;;;;;14.85;6.90;;;;;;;;;;7428274;19;19944;-81
2024/03/09 05:43:34;;;;;;;14.70;6.05;;;;;;;;;;7428914;19;19947;-81
2024/03/09 05:46:25;;;;;;;14.50;5.53;;;;;;;;;;7423783;19;19934;-81
2024/03/09 05:49:15;;;;;;;14.23;6.25;;;;;;;;;;7428293;19;19934;-80
2024/03/09 05:52:01;;;;;;;17.10;6.90;;;;;;;;;;7427724;19;19973;-80
2024/03/09 05:54:48;;;;;;;15.25;6.22;;;;;;;;;;7426824;19;19943;-80
2024/03/09 05:57:32;;;;;;;16.92;6.70;;;;;;;;;;7425998;19;19914;-80
2024/03/09 06:00:19;;;;;;;13.63;6.45;;;;;;;;;;7434789;19;19915;-80
2024/03/09 06:03:09;;;;;;;12.52;5.78;;;;;;;;;;7438020;19;19926;-80
2024/03/09 06:05:53;;;;;;;13.88;6.25;;;;;;;;;;7435650;19;19956;-80
2024/03/09 06:08:38;;;;;;;16.52;6.25;;;;;;;;;;7437647;19;19951;-80
2024/03/09 06:11:23;;;;;;;12.88;5.93;;;;;;;;;;7437848;19;19922;-81
2024/03/09 06:14:14;;;;;;;19.85;6.47;;;;;;;;;;7441326;19;19935;-81
2024/03/09 06:17:00;;;;;;;14.82;6.18;;;;;;;;;;7444754;19;19924;-81
2024/03/09 06:19:52;;;;;;;11.40;5.70;;;;;;;;;;7426291;19;19989;-80
2024/03/09 06:22:42;;;;;;;15.32;6.57;;;;;;;;;;7415359;19;19915;-80
2024/03/09 06:25:29;;;;;;;20.33;7.25;;;;;;;;;;7409909;19;19915;-80
2024/03/09 06:28:15;;;;;;;15.95;6.53;;;;;;;;;;7411752;19;20112;-81
2024/03/09 06:31:03;;;;;;;15.75;7.07;;;;;;;;;;7433900;19;19918;-81
2024/03/09 06:33:47;;;;;;;14.38;6.60;;;;;;;;;;7440132;19;19947;-80
2024/03/09 06:36:38;;;;;;;14.18;6.25;;;;;;;;;;7411930;19;19926;-81
2024/03/09 06:39:30;;;;;;;14.07;5.93;;;;;;;;;;7413105;19;19957;-81
2024/03/09 06:42:18;;;;;;;16.52;6.60;;;;;;;;;;7413127;19;20262;-81
2024/03/09 06:45:08;;;;;;;15.20;6.35;;;;;;;;;;7413999;19;20330;-81
2024/03/09 06:47:52;;;;;;;15.05;6.25;;;;;;;;;;7407553;19;19923;-83
2024/03/09 06:50:44;;;;;;;14.55;6.30;;;;;;;;;;7408541;19;19915;-83
2024/03/09 06:53:30;;;;;;;13.90;6.22;;;;;;;;;;7412828;19;19919;-82
2024/03/09 06:56:17;;;;;;;17.05;6.32;;;;;;;;;;7410812;19;19934;-82
2024/03/09 06:59:01;;;;;;;11.75;5.35;;;;;;;;;;7413003;19;20602;-82
2024/03/09 07:01:46;;;;;;;14.73;6.13;;;;;;;;;;7413540;19;19925;-82
2024/03/09 07:04:32;;;;;;;13.90;6.25;;;;;;;;;;7411147;19;20391;-82
2024/03/09 07:07:21;;;;;;;15.32;6.47;;;;;;;;;;7411361;19;19919;-83
2024/03/09 07:10:13;;;;;;;15.18;6.55;;;;;;;;;;7412990;19;20501;-83
2024/03/09 07:12:59;;;;;;;9.07;4.80;;;;;;;;;;7413153;19;19917;-83
2024/03/09 07:15:45;;;;;;;14.80;6.63;;;;;;;;;;7412929;19;20406;-83
2024/03/09 07:18:34;;;;;;;14.50;6.72;;;;;;;;;;7407274;19;20231;-82
2024/03/09 07:21:22;;;;;;;14.73;6.60;;;;;;;;;;7411324;19;19918;-82
2024/03/09 07:24:07;;;;;;;15.38;7.45;;;;;;;;;;7415036;19;19925;-82
2024/03/09 07:26:56;;;;;;;16.50;6.85;;;;;;;;;;7415089;19;19952;-82
2024/03/09 07:29:49;;;;;;;14.02;6.18;;;;;;;;;;7419379;19;20257;-82
2024/03/09 07:32:37;;;;;;;12.95;6.25;;;;;;;;;;7418763;19;19922;-82
2024/03/09 07:35:27;;;;;;;14.77;6.68;;;;;;;;;;7417349;19;20265;-83
2024/03/09 07:38:11;;;;;;;15.95;6.90;;;;;;;;;;7416332;19;19922;-83
2024/03/09 07:41:00;;;;;;;17.23;6.88;;;;;;;;;;7413428;19;19915;-83
2024/03/09 07:43:52;;;;;;;13.10;6.30;;;;;;;;;;7416126;19;19941;-83
2024/03/09 07:46:39;;;;;;;;;;;;;;;;;;7416817;19;19986;-83
2024/03/09 07:49:23;;;;;;;11.82;6.15;;;;;;;;;;7417877;19;20283;-83
2024/03/09 07:52:09;;;;;;;16.48;7.20;;;;;;;;;;7414630;19;19928;-83
2024/03/09 07:54:56;;;;;;;13.95;6.35;;;;;;;;;;7414166;19;19915;-83
2024/03/09 07:57:45;;;;;;;15.77;7.22;;;;;;;;;;7412075;19;19927;-84
2024/03/09 08:00:36;;;;;;;17.05;6.43;;;;;;;;;;7417907;19;19910;-83
2024/03/09 08:03:22;;;;;;;15.85;6.90;;;;;;;;;;7413960;19;19933;-83
2024/03/09 08:06:07;;;;;;;13.25;6.60;;;;;;;;;;7415519;19;19982;-83
2024/03/09 08:08:52;;;;;;;16.70;7.43;;;;;;;;;;7415429;19;19926;-84
2024/03/09 08:11:36;;;;;;;13.35;7.28;;;;;;;;;;7412842;19;20342;-83
2024/03/09 08:14:25;;;;;;;13.98;7.10;;;;;;;;;;7415855;19;19925;-83
2024/03/09 08:17:14;;;;;;;15.35;8.32;;;;;;;;;;7415699;19;19915;-83
2024/03/09 08:20:00;;;;;;;13.93;6.70;;;;;;;;;;7413785;19;19903;-83
2024/03/09 08:22:45;;;;;;;13.07;6.35;;;;;;;;;;7413538;19;19918;-83
2024/03/09 08:25:32;;;;;;;15.75;6.65;;;;;;;;;;7412631;19;19911;-83
2024/03/09 08:28:20;;;;;;;11.48;6.25;;;;;;;;;;7416452;19;19915;-83
2024/03/09 08:31:08;;;;;;;12.57;6.13;;;;;;;;;;7410164;19;20277;-83
2024/03/09 08:33:55;;;;;;;15.30;6.65;;;;;;;;;;7418796;19;19910;-83
2024/03/09 08:36:40;;;;;;;15.85;7.05;;;;;;;;;;7419959;19;19919;-83
2024/03/09 08:39:25;;;;;;;16.05;7.70;;;;;;;;;;7422647;19;19907;-83
2024/03/09 08:42:10;;;;;;;15.35;7.38;;;;;;;;;;7422031;19;19918;-83
2024/03/09 08:44:58;;;;;;;14.68;6.72;;;;;;;;;;7418610;19;19914;-86
2024/03/09 08:47:45;;;;;;;16.80;7.72;;;;;;;;;;7419162;19;19930;-83
2024/03/09 08:50:36;;;;;;;11.65;5.50;;;;;;;;;;7413207;19;19915;-83
2024/03/09 08:53:21;;;;;;;15.43;6.93;;;;;;;;;;7410101;19;19941;-83
2024/03/09 08:56:08;;;;;;;12.10;6.72;;;;;;;;;;7411907;19;20007;-83
2024/03/09 08:58:53;;;;;;;14.07;6.90;;;;;;;;;;7414378;19;19915;-83
2024/03/09 09:01:37;;;;;;;15.70;6.25;;;;;;;;;;7410552;19;20011;-83
2024/03/09 09:04:23;;;;;;;15.68;7.22;;;;;;;;;;7411619;19;19918;-83
2024/03/09 09:07:13;;;;;;;12.15;6.70;;;;;;;;;;7416751;19;19919;-84
2024/03/09 09:09:57;;;;;;;16.85;8.00;;;;;;;;;;7435559;19;19914;-84
2024/03/09 09:12:42;;;;;;;14.02;6.80;;;;;;;;;;7443009;19;19907;-84
2024/03/09 09:15:27;;;;;;;20.30;7.55;;;;;;;;;;7438892;19;19919;-82
2024/03/09 09:18:13;;;;;;;13.40;6.38;;;;;;;;;;7428265;19;19915;-83
2024/03/09 09:20:58;;;;;;;12.35;6.53;;;;;;;;;;7435475;19;19922;-83
2024/03/09 09:23:47;;;;;;;8.82;5.18;;;;;;;;;;7440028;19;19919;-83
2024/03/09 09:26:36;;;;;;;14.30;7.25;;;;;;;;;;7436789;19;19907;-83
2024/03/09 09:29:23;;;;;;;13.07;6.68;;;;;;;;;;7439927;19;19922;-83
2024/03/09 09:32:08;;;;;;;15.50;7.68;;;;;;;;;;7437418;19;19926;-83
2024/03/09 09:34:54;;;;;;;14.00;6.43;;;;;;;;;;7424992;19;19922;-83
2024/03/09 09:37:43;;;;;;;15.98;7.65;;;;;;;;;;7416712;19;19910;-83
2024/03/09 09:40:33;;;;;;;17.08;7.30;;;;;;;;;;7418029;19;19919;-83
2024/03/09 09:43:21;;;;;;;14.35;6.55;;;;;;;;;;7418744;19;19910;-83
2024/03/09 09:46:07;;;;;;;14.95;6.80;;;;;;;;;;7414051;19;19926;-83
2024/03/09 09:48:55;;;;;;;17.17;6.78;;;;;;;;;;7416662;19;19979;-83
2024/03/09 09:51:42;;;;;;;13.43;6.93;;;;;;;;;;7416412;19;19914;-83
2024/03/09 09:54:29;;;;;;;15.00;7.85;;;;;;;;;;7415449;19;19937;-83
2024/03/09 09:57:18;;;;;;;14.70;6.47;;;;;;;;;;7418342;19;19923;-83
2024/03/09 10:00:02;;;;;;;13.88;7.47;;;;;;;;;;7425062;19;20255;-83
2024/03/09 10:02:50;;;;;;;16.42;7.90;;;;;;;;;;7415588;19;19907;-84
2024/03/09 10:05:37;;;;;;;14.43;6.93;;;;;;;;;;7416717;19;19926;-84
2024/03/09 10:08:23;;;;;;;12.65;5.82;;;;;;;;;;7416495;19;19922;-84
2024/03/09 10:11:16;;;;;;;13.65;6.90;;;;;;;;;;7414898;19;20282;-83
2024/03/09 10:14:05;;;;;;;16.13;7.78;;;;;;;;;;7415829;19;19914;-83
2024/03/09 10:16:49;;;;;;;16.13;8.48;;;;;;;;;;7415829;19;19918;-83
2024/03/09 10:19:37;;;;;;;12.75;6.25;;;;;;;;;;7414704;19;19951;-83
2024/03/09 10:22:21;;;;;;;14.52;7.18;;;;;;;;;;7417849;19;19956;-83
2024/03/09 10:25:10;;;;;;;13.68;7.07;;;;;;;;;;7416465;19;19914;-83
2024/03/09 10:27:58;;;;;;;19.80;7.72;;;;;;;;;;7414642;19;19977;-83
2024/03/09 10:30:48;;;;;;;11.73;5.47;;;;;;;;;;7417222;19;19922;-83
2024/03/09 10:33:37;;;;;;;11.25;5.75;;;;;;;;;;7416357;19;20537;-83
2024/03/09 10:36:23;;;;;;;16.80;7.93;;;;;;;;;;7415449;19;19929;-83
2024/03/09 10:39:15;;;;;;;13.95;6.65;;;;;;;;;;7413324;19;19927;-83
2024/03/09 10:42:06;;;;;;;19.40;8.70;;;;;;;;;;7417557;19;19933;-83
2024/03/09 10:44:55;;;;;;;16.50;7.85;;;;;;;;;;7416374;19;19926;-83
2024/03/09 10:47:49;;;;;;;15.70;7.68;;;;;;;;;;7414900;19;19999;-83
2024/03/09 10:50:43;;;;;;;14.05;7.03;;;;;;;;;;7415546;19;19922;-83
2024/03/09 10:53:38;;;;;;;14.23;7.47;;;;;;;;;;7414350;19;19907;-83
2024/03/09 10:56:27;;;;;;;16.48;6.75;;;;;;;;;;7413265;19;19923;-83
2024/03/09 10:59:15;;;;;;;13.25;6.55;;;;;;;;;;7410458;19;19922;-83
2024/03/09 11:02:03;;;;;;;16.95;7.90;;;;;;;;;;7410943;19;19995;-83
2024/03/09 11:04:54;;;;;;;14.98;6.95;;;;;;;;;;7410324;19;20250;-83
2024/03/09 11:07:38;;;;;;;15.50;7.72;;;;;;;;;;7409640;19;20031;-83
2024/03/09 11:10:27;;;;;;;15.27;6.65;;;;;;;;;;7409881;19;19906;-83
2024/03/09 11:13:12;;;;;;;14.00;6.97;;;;;;;;;;7413034;19;19927;-83
2024/03/09 11:15:58;;;;;;;15.45;7.68;;;;;;;;;;7411949;19;19977;-83
2024/03/09 11:18:45;;;;;;;15.35;6.93;;;;;;;;;;7416202;19;19918;-84
2024/03/09 11:21:37;;;;;;;;;;;;;;;;;;7416788;19;19919;-84
2024/03/09 11:24:29;;;;;;;14.95;7.03;;;;;;;;;;7413739;19;19914;-83
2024/03/09 11:27:16;;;;;;;13.35;5.40;;;;;;;;;;7415214;19;19907;-83
2024/03/09 11:30:06;;;;;;;13.52;7.03;;;;;;;;;;7416120;19;19914;-84
2024/03/09 11:32:54;;;;;;;14.48;6.53;;;;;;;;;;7416626;19;19918;-83
2024/03/09 11:35:41;;;;;;;13.23;7.25;;;;;;;;;;7411724;19;20256;-83
2024/03/09 11:38:35;;;;;;;12.52;6.20;;;;;;;;;;7410073;19;20310;-83
2024/03/09 11:41:25;;;;;;;14.20;7.15;;;;;;;;;;7410721;19;19918;-83
2024/03/09 11:44:09;;;;;;;12.10;6.22;;;;;;;;;;7409021;19;19915;-83
2024/03/09 11:46:55;;;;;;;12.80;6.78;;;;;;;;;;7408245;19;19937;-83
2024/03/09 11:49:44;;;;;;;13.57;6.70;;;;;;;;;;7411085;19;19919;-83
2024/03/09 11:52:32;;;;;;;14.15;6.53;;;;;;;;;;7407330;19;19919;-83
2024/03/09 11:55:22;;;;;;;15.00;7.20;;;;;;;;;;7405152;19;19930;-83
2024/03/09 11:58:10;;;;;;;13.70;6.90;;;;;;;;;;7404423;19;19929;-83
2024/03/09 12:00:57;;;;;;;13.35;6.55;;;;;;;;;;7404279;19;20334;-83
2024/03/09 12:03:58;;;;;;;14.85;7.05;;;;;;;;;;7410691;19;19922;-84
2024/03/09 12:06:45;;;;;;;12.63;6.35;;;;;;;;;;7408241;19;19930;-83
2024/03/09 12:09:34;;;;;;;9.90;5.40;;;;;;;;;;7410206;19;19926;-83
2024/03/09 12:12:25;;;;;;;15.52;7.07;;;;;;;;;;7414649;19;19931;-83
2024/03/09 12:15:16;;;;;;;15.50;7.18;;;;;;;;;;7414612;19;19950;-83
2024/03/09 12:18:05;;;;;;;16.27;7.53;;;;;;;;;;7415224;19;19927;-83
2024/03/09 12:20:53;;;;;;;13.50;7.70;;;;;;;;;;7418386;19;19914;-83
2024/03/09 12:23:37;;;;;;;12.68;6.82;;;;;;;;;;7415582;19;19922;-82
2024/03/09 12:26:23;;;;;;;14.68;6.38;;;;;;;;;;7414910;19;19907;-83
2024/03/09 12:29:11;;;;;;;14.95;7.03;;;;;;;;;;7415762;19;19914;-83
2024/03/09 12:31:58;;;;;;;12.65;5.85;;;;;;;;;;7415755;19;20566;-83
2024/03/09 12:34:43;;;;;;;13.32;6.43;;;;;;;;;;7411766;19;19922;-83
2024/03/09 12:37:30;;;;;;;12.40;6.63;;;;;;;;;;7414202;19;19956;-83
2024/03/09 12:40:25;;;;;;;14.38;6.97;;;;;;;;;;7412870;19;19922;-83
2024/03/09 12:43:09;;;;;;;11.00;5.75;;;;;;;;;;7410695;19;19941;-84
2024/03/09 12:45:59;;;;;;;12.70;6.07;;;;;;;;;;7407412;19;19910;-83
2024/03/09 12:48:50;;;;;;;11.18;5.57;;;;;;;;;;7406323;19;19942;-85
2024/03/09 12:51:39;;;;;;;12.85;6.55;;;;;;;;;;7416593;19;19918;-85
2024/03/09 12:54:30;;;;;;;12.27;6.68;;;;;;;;;;7418188;19;19998;-85
2024/03/09 12:57:20;;;;;;;12.52;6.20;;;;;;;;;;7419867;19;19918;-85
2024/03/09 13:00:22;;;;;;;11.38;4.97;;;;;;;;;;7422788;19;20333;-85
2024/03/09 13:03:12;;;;;;;11.80;5.88;;;;;;;;;;7420319;19;19903;-85
2024/03/09 13:06:07;;;;;;;11.45;6.00;;;;;;;;;;7422093;19;19907;-86
2024/03/09 13:08:58;;;;;;;12.65;6.22;;;;;;;;;;7422106;19;19918;-85
2024/03/09 13:11:47;;;;;;;12.55;6.40;;;;;;;;;;7425663;19;19919;-86
2024/03/09 13:14:39;;;;;;;10.60;5.25;;;;;;;;;;7424768;19;21290;-85
2024/03/09 13:17:30;;;;;;;13.73;6.75;;;;;;;;;;7422882;19;19922;-83
2024/03/09 13:20:30;;;;;;;15.18;6.65;;;;;;;;;;7422444;19;19915;-85
2024/03/09 13:23:39;;;;;;;12.00;5.72;;;;;;;;;;7423422;19;19963;-85
2024/03/09 13:26:27;;;;;;;11.23;5.93;;;;;;;;;;7424235;19;19918;-84
2024/03/09 13:29:12;;;;;;;12.40;6.38;;;;;;;;;;7421960;19;20254;-86
2024/03/09 13:31:59;;;;;;;12.48;6.35;;;;;;;;;;7423696;19;19943;-86
2024/03/09 13:34:43;;;;;;;11.55;5.65;;;;;;;;;;7423903;19;19978;-86
2024/03/09 13:37:37;;;;;;;10.95;6.47;;;;;;;;;;7425475;19;20188;-86
2024/03/09 13:40:25;;;;;;;13.07;6.60;;;;;;;;;;7424554;19;20257;-86
2024/03/09 13:43:09;;;;;;;12.38;5.80;;;;;;;;;;7423420;19;19943;-85
2024/03/09 13:45:56;;;;;;;11.30;6.30;;;;;;;;;;7421625;19;20289;-85
2024/03/09 13:48:43;;;;;;;14.82;6.85;;;;;;;;;;7420823;19;20277;-85
2024/03/09 13:51:31;;;;;;;10.88;6.53;;;;;;;;;;7423470;19;19910;-85
2024/03/09 13:54:22;;;;;;;12.10;6.18;;;;;;;;;;7422087;19;19906;-85
2024/03/09 13:57:08;;;;;;;14.98;7.00;;;;;;;;;;7419892;19;19915;-84
2024/03/09 13:59:54;;;;;;;10.05;5.53;;;;;;;;;;7422070;19;19926;-85
2024/03/09 14:02:41;;;;;;;11.82;6.47;;;;;;;;;;7423518;19;19911;-85
2024/03/09 14:05:27;;;;;;;13.25;6.43;;;;;;;;;;7422980;19;19921;-85
2024/03/09 14:08:11;;;;;;;9.77;5.45;;;;;;;;;;7423574;19;19939;-85
2024/03/09 14:10:58;;;;;;;12.98;6.45;;;;;;;;;;7422574;19;19926;-85
2024/03/09 14:13:43;;;;;;;11.75;6.15;;;;;;;;;;7423671;19;19918;-85
2024/03/09 14:16:28;;;;;;;11.18;6.20;;;;;;;;;;7419584;19;19951;-85
2024/03/09 14:19:14;;;;;;;12.55;6.30;;;;;;;;;;7422603;19;19914;-85
2024/03/09 14:21:59;;;;;;;12.98;6.60;;;;;;;;;;7423216;19;19968;-85
2024/03/09 14:24:46;;;;;;;11.18;6.47;;;;;;;;;;7420375;19;19918;-85
2024/03/09 14:27:36;;;;;;;13.93;5.80;;;;;;;;;;7419504;19;19918;-85
2024/03/09 14:30:26;;;;;;;9.40;5.45;;;;;;;;;;7420692;19;19941;-85
2024/03/09 14:33:12;;;;;;;11.25;6.07;;;;;;;;;;7419684;19;19919;-85
2024/03/09 14:35:59;;;;;;;10.38;6.13;;;;;;;;;;7422158;19;19922;-85
2024/03/09 14:38:48;;;;;;;11.93;5.95;;;;;;;;;;7424955;19;19926;-86
2024/03/09 14:41:32;;;;;;;12.02;6.13;;;;;;;;;;7421527;19;19927;-86
2024/03/09 14:44:22;;;;;;;12.30;5.72;;;;;;;;;;7423911;19;19910;-85
2024/03/09 14:47:08;;;;;;;16.02;5.65;;;;;;;;;;7419631;19;19930;-85
2024/03/09 14:49:53;;;;;;;10.35;6.13;;;;;;;;;;7422935;19;19944;-86
2024/03/09 14:52:39;;;;;;;10.85;5.20;;;;;;;;;;7425165;19;19918;-85
2024/03/09 14:55:27;;;;;;;11.95;6.15;;;;;;;;;;7425067;19;19910;-86
2024/03/09 14:58:16;;;;;;;14.65;6.88;;;;;;;;;;7423479;19;19915;-85
2024/03/09 15:01:04;;;;;;;12.65;5.65;;;;;;;;;;7425202;19;19907;-85
2024/03/09 15:03:46;;;;;;;13.30;6.47;;;;;;;;;;7424671;19;19915;-85
2024/03/09 15:06:35;;;;;;;14.13;7.38;;;;;;;;;;7422352;19;19952;-84
2024/03/09 15:09:25;;;;;;;11.55;6.68;;;;;;;;;;7420465;19;19915;-84
2024/03/09 15:12:10;;;;;;;10.52;5.72;;;;;;;;;;7422927;19;19926;-84
2024/03/09 15:14:54;;;;;;;12.93;5.90;;;;;;;;;;7422845;19;19930;-85
2024/03/09 15:17:44;;;;;;;12.52;6.30;;;;;;;;;;7422987;19;19915;-85
2024/03/09 15:20:33;;;;;;;9.95;5.40;;;;;;;;;;7423207;19;19940;-85
2024/03/09 15:23:21;;;;;;;12.07;6.68;;;;;;;;;;7424058;19;19945;-84
2024/03/09 15:26:08;;;;;;;12.07;5.57;;;;;;;;;;7422643;19;19911;-84
2024/03/09 15:28:57;;;;;;;13.00;6.10;;;;;;;;;;7422016;19;19951;-84
2024/03/09 15:31:46;;;;;;;9.57;5.78;;;;;;;;;;7424550;19;19978;-84
2024/03/09 15:34:35;;;;;;;10.38;6.38;;;;;;;;;;7423948;19;19927;-84
2024/03/09 15:37:24;;;;;;;9.30;5.60;;;;;;;;;;7426741;19;19931;-84
2024/03/09 15:40:13;;;;;;;14.48;6.70;;;;;;;;;;7427618;19;19950;-84
2024/03/09 15:42:57;;;;;;;10.35;5.95;;;;;;;;;;7426913;19;19921;-84
2024/03/09 15:45:44;;;;;;;10.57;5.75;;;;;;;;;;7437017;19;19918;-84
2024/03/09 15:48:29;;;;;;;11.50;5.97;;;;;;;;;;7444532;19;19917;-84
2024/03/09 15:51:19;;;;;;;12.75;6.40;;;;;;;;;;7448955;19;19925;-83
2024/03/09 15:54:04;;;;;;;10.48;5.47;;;;;;;;;;7425595;19;19918;-84
2024/03/09 15:56:51;;;;;;;11.02;6.00;;;;;;;;;;7423519;19;19914;-85
2024/03/09 15:59:38;;;;;;;11.93;5.95;;;;;;;;;;7422909;19;19918;-85
2024/03/09 16:02:25;;;;;;;13.57;5.55;;;;;;;;;;7421782;19;19954;-84
2024/03/09 16:05:13;;;;;;;12.07;5.75;;;;;;;;;;7422985;19;19914;-84
2024/03/09 16:08:02;;;;;;;12.48;6.30;;;;;;;;;;7419736;19;19919;-84
2024/03/09 16:10:49;;;;;;;11.88;5.75;;;;;;;;;;7421878;19;19914;-85
2024/03/09 16:13:38;;;;;;;11.27;6.07;;;;;;;;;;7421549;19;19931;-84
2024/03/09 16:16:23;;;;;;;16.02;5.97;;;;;;;;;;7422652;19;19918;-84
2024/03/09 16:19:10;;;;;;;11.27;6.10;;;;;;;;;;7419967;19;19915;-84
2024/03/09 16:22:04;;;;;;;12.05;6.13;;;;;;;;;;7422685;19;19910;-84
2024/03/09 16:24:54;;;;;;;11.80;6.15;;;;;;;;;;7420791;19;19919;-85
2024/03/09 16:27:40;;;;;;;11.43;5.82;;;;;;;;;;7421888;19;19914;-84
2024/03/09 16:30:31;;;;;;;11.32;6.45;;;;;;;;;;7423518;19;19939;-84
2024/03/09 16:33:16;;;;;;;11.00;5.68;;;;;;;;;;7421881;19;19925;-85